createdAt,value
2023-04-02T00:00:12.136Z,100049.56
2023-04-02T00:02:55.171Z,100056.03
2023-04-02T00:05:31.457Z,100057.97
2023-04-02T00:08:03.440Z,100062.53
2023-04-02T00:10:55.011Z,100060.00
2023-04-02T00:13:29.457Z,100070.72
2023-04-02T00:15:59.106Z,100067.28
2023-04-02T00:18:27.294Z,100064.97
2023-04-02T00:21:01.092Z,100069.97
2023-04-02T00:23:28.567Z,100069.34
2023-04-02T00:25:55.672Z,100062.50
2023-04-02T00:28:24.400Z,100065.44
2023-04-02T00:30:59.658Z,100063.84
2023-04-02T00:33:31.623Z,100061.38
2023-04-02T00:35:59.356Z,100060.03
2023-04-02T00:38:31.009Z,100063.78
2023-04-02T00:41:02.945Z,100071.94
2023-04-02T00:43:36.609Z,100060.63
2023-04-02T00:46:14.730Z,100084.94
2023-04-02T00:48:58.652Z,100074.56
2023-04-02T00:51:37.712Z,100075.91
2023-04-02T00:54:10.497Z,100084.16
2023-04-02T00:56:45.472Z,100088.00
2023-04-02T00:59:48.944Z,100080.34
2023-04-02T01:02:17.478Z,100083.00
2023-04-02T01:05:02.381Z,100084.00
2023-04-02T01:07:56.492Z,100086.53
2023-04-02T01:11:12.246Z,100086.53
2023-04-02T01:14:13.073Z,100089.44
2023-04-02T01:16:56.198Z,100091.63
2023-04-02T01:19:49.180Z,100096.56
2023-04-02T01:22:35.219Z,100100.41
2023-04-02T01:25:04.591Z,100103.44
2023-04-02T01:28:11.503Z,100112.53
2023-04-02T01:30:38.993Z,100117.16
2023-04-02T01:33:07.163Z,100111.69
2023-04-02T01:35:39.797Z,100116.91
2023-04-02T01:38:25.806Z,100110.84
2023-04-02T01:41:14.102Z,100112.53
2023-04-02T01:43:57.002Z,100107.41
2023-04-02T01:46:29.837Z,100117.16
2023-04-02T01:49:01.620Z,100118.94
2023-04-02T01:51:35.216Z,100131.25
2023-04-02T01:54:06.781Z,100131.25
2023-04-02T01:56:35.615Z,100135.75
2023-04-02T01:59:05.977Z,100138.44
2023-04-02T02:01:48.596Z,100139.28
2023-04-02T02:04:17.049Z,100143.78
2023-04-02T02:06:45.312Z,100143.56
2023-04-02T02:09:22.023Z,100152.44
2023-04-02T02:11:50.852Z,100151.59
2023-04-02T02:14:24.966Z,100154.25
2023-04-02T02:17:02.427Z,100157.03
2023-04-02T02:19:52.181Z,100163.25
2023-04-02T02:22:34.370Z,100168.69
2023-04-02T02:25:07.664Z,100162.50
2023-04-02T02:27:46.023Z,100166.16
2023-04-02T02:30:37.143Z,100165.19
2023-04-02T02:33:31.099Z,100176.72
2023-04-02T02:36:12.546Z,100164.41
2023-04-02T02:39:13.494Z,100167.22
2023-04-02T02:42:06.098Z,100168.41
2023-04-02T02:44:41.124Z,100173.56
2023-04-02T02:47:17.331Z,100176.22
2023-04-02T02:49:52.958Z,100169.91
2023-04-02T02:52:28.872Z,100181.56
2023-04-02T02:55:15.466Z,100191.16
2023-04-02T02:57:55.275Z,100196.44
2023-04-02T03:00:26.621Z,100209.81
2023-04-02T03:02:57.262Z,100201.78
2023-04-02T03:05:28.626Z,100209.91
2023-04-02T03:08:03.840Z,100198.34
2023-04-02T03:10:50.632Z,100209.16
2023-04-02T03:13:28.140Z,100209.25
2023-04-02T03:16:27.323Z,100214.59
2023-04-02T03:19:17.097Z,100214.53
2023-04-02T03:21:49.493Z,100225.09
2023-04-02T03:24:36.006Z,100225.31
2023-04-02T03:27:42.563Z,100235.78
2023-04-02T03:30:57.974Z,100230.44
2023-04-02T03:33:55.902Z,100228.97
2023-04-02T03:36:32.602Z,100230.66
2023-04-02T03:39:35.457Z,100223.41
2023-04-02T03:42:26.521Z,100227.78
2023-04-02T03:45:12.569Z,100242.97
2023-04-02T03:48:03.814Z,100243.09
2023-04-02T03:50:44.931Z,100247.47
2023-04-02T03:53:12.623Z,100244.59
2023-04-02T03:55:42.673Z,100254.22
2023-04-02T03:58:42.210Z,100260.28
2023-04-02T04:01:34.740Z,100263.94
2023-04-02T04:04:12.265Z,100268.53
2023-04-02T04:06:43.703Z,100265.97
2023-04-02T04:09:22.883Z,100275.59
2023-04-02T04:11:56.637Z,100277.22
2023-04-02T04:14:33.592Z,100294.84
2023-04-02T04:17:34.812Z,100287.66
2023-04-02T04:20:23.995Z,100292.09
2023-04-02T04:22:56.057Z,100288.56
2023-04-02T04:25:30.075Z,100293.03
2023-04-02T04:28:22.169Z,100293.34
2023-04-02T04:31:18.171Z,100302.22
2023-04-02T04:33:55.604Z,100300.41
2023-04-02T04:36:34.093Z,100302.22
2023-04-02T04:39:21.482Z,100308.53
2023-04-02T04:41:52.090Z,100312.19
2023-04-02T04:44:51.338Z,100316.00
2023-04-02T04:47:26.458Z,100319.66
2023-04-02T04:50:24.685Z,100329.50
2023-04-02T04:52:52.738Z,100334.09
2023-04-02T04:55:39.776Z,100342.31
2023-04-02T04:58:23.714Z,100339.97
2023-04-02T05:01:02.015Z,100343.69
2023-04-02T05:04:16.594Z,100352.72
2023-04-02T05:07:02.943Z,100359.16
2023-04-02T05:09:41.472Z,100368.03
2023-04-02T05:12:56.791Z,100372.63
2023-04-02T05:15:35.687Z,100372.63
2023-04-02T05:18:23.357Z,100375.50
2023-04-02T05:21:08.295Z,100373.03
2023-04-02T05:24:04.828Z,100385.84
2023-04-02T05:26:40.972Z,100384.13
2023-04-02T05:29:34.358Z,100395.78
2023-04-02T05:32:28.626Z,100396.63
2023-04-02T05:34:57.364Z,100397.47
2023-04-02T05:37:28.886Z,100403.59
2023-04-02T05:40:14.722Z,100409.00
2023-04-02T05:42:49.502Z,100409.91
2023-04-02T05:45:33.427Z,100409.91
2023-04-02T05:48:17.355Z,100410.94
2023-04-02T05:50:58.888Z,100418.13
2023-04-02T05:53:38.187Z,100417.34
2023-04-02T05:56:21.281Z,100421.00
2023-04-02T05:59:16.319Z,100418.59
2023-04-02T06:01:47.553Z,100423.94
2023-04-02T06:04:37.005Z,100420.41
2023-04-02T06:07:26.134Z,100424.06
2023-04-02T06:10:26.241Z,100422.34
2023-04-02T06:13:06.666Z,100429.47
2023-04-02T06:15:38.873Z,100431.31
2023-04-02T06:18:21.250Z,100441.91
2023-04-02T06:20:50.145Z,100445.22
2023-04-02T06:23:41.968Z,100448.75
2023-04-02T06:26:38.420Z,100461.06
2023-04-02T06:29:26.974Z,100463.63
2023-04-02T06:32:00.546Z,100473.28
2023-04-02T06:34:30.395Z,100466.03
2023-04-02T06:37:21.466Z,100472.97
2023-04-02T06:39:51.708Z,100469.22
2023-04-02T06:42:32.043Z,100458.34
2023-04-02T06:45:41.577Z,100459.84
2023-04-02T06:48:18.423Z,100459.50
2023-04-02T06:51:02.318Z,100467.09
2023-04-02T06:53:37.789Z,100466.81
2023-04-02T06:56:44.008Z,100463.06
2023-04-02T06:59:15.889Z,100461.94
2023-04-02T07:01:55.630Z,100469.63
2023-04-02T07:04:23.966Z,100480.97
2023-04-02T07:06:54.177Z,100506.03
2023-04-02T07:09:23.929Z,100517.13
2023-04-02T07:11:54.767Z,100526.31
2023-04-02T07:14:21.890Z,100515.81
2023-04-02T07:16:49.033Z,100499.56
2023-04-02T07:19:23.028Z,100488.56
2023-04-02T07:21:54.510Z,100488.16
2023-04-02T07:24:22.941Z,100497.59
2023-04-02T07:26:49.946Z,100505.63
2023-04-02T07:29:18.002Z,100512.34
2023-04-02T07:31:45.378Z,100509.47
2023-04-02T07:34:12.520Z,100525.25
2023-04-02T07:36:39.577Z,100524.06
2023-04-02T07:39:06.615Z,100534.56
2023-04-02T07:41:33.750Z,100539.06
2023-04-02T07:44:01.369Z,100550.63
2023-04-02T07:46:28.415Z,100563.81
2023-04-02T07:48:55.499Z,100568.94
2023-04-02T07:51:26.717Z,100567.78
2023-04-02T07:53:56.204Z,100575.59
2023-04-02T07:56:25.492Z,100579.91
2023-04-02T07:58:52.703Z,100573.38
2023-04-02T08:01:24.612Z,100563.13
2023-04-02T08:03:54.916Z,100562.91
2023-04-02T08:06:23.615Z,100569.47
2023-04-02T08:08:51.192Z,100576.00
2023-04-02T08:11:18.512Z,100578.38
2023-04-02T08:13:45.602Z,100590.59
2023-04-02T08:16:12.752Z,100593.19
2023-04-02T08:18:40.211Z,100592.00
2023-04-02T08:21:09.857Z,100590.84
2023-04-02T08:23:38.487Z,100593.84
2023-04-02T08:26:06.643Z,100596.13
2023-04-02T08:28:34.291Z,100598.34
2023-04-02T08:31:02.222Z,100608.03
2023-04-02T08:33:29.454Z,100598.72
2023-04-02T08:35:56.791Z,100592.09
2023-04-02T08:38:25.876Z,100593.44
2023-04-02T08:40:56.935Z,100587.66
2023-04-02T08:43:39.183Z,100589.91
2023-04-02T08:46:33.850Z,100598.38
2023-04-02T08:49:03.775Z,100595.69
2023-04-02T08:51:36.825Z,100602.25
2023-04-02T08:54:18.178Z,100608.88
2023-04-02T08:56:56.246Z,100612.75
2023-04-02T08:59:37.216Z,100634.41
2023-04-02T09:02:26.063Z,100634.06
2023-04-02T09:04:53.438Z,100655.09
2023-04-02T09:07:20.913Z,100645.53
2023-04-02T09:09:50.044Z,100643.25
2023-04-02T09:12:21.446Z,100646.00
2023-04-02T09:15:35.991Z,100654.78
2023-04-02T09:18:19.233Z,100659.28
2023-04-02T09:20:48.168Z,100663.22
2023-04-02T09:23:24.585Z,100664.47
2023-04-02T09:26:03.521Z,100666.78
2023-04-02T09:28:32.420Z,100666.34
2023-04-02T09:31:20.925Z,100668.69
2023-04-02T09:33:51.566Z,100671.16
2023-04-02T09:36:38.943Z,100668.13
2023-04-02T09:39:21.709Z,100668.72
2023-04-02T09:41:59.051Z,100675.59
2023-04-02T09:44:31.885Z,100672.34
2023-04-02T09:47:04.065Z,100666.59
2023-04-02T09:49:37.508Z,100668.47
2023-04-02T09:52:18.881Z,100674.63
2023-04-02T09:54:48.325Z,100673.56
2023-04-02T09:57:23.846Z,100678.03
2023-04-02T10:03:06.013Z,100675.09
2023-04-02T10:05:39.849Z,100685.25
2023-04-02T10:08:25.669Z,100685.25
2023-04-02T10:10:55.612Z,100677.78
2023-04-02T10:13:29.415Z,100677.41
2023-04-02T10:16:47.082Z,100687.34
2023-04-02T10:19:34.123Z,100681.44
2023-04-02T10:22:06.442Z,100680.94
2023-04-02T10:24:33.795Z,100677.28
2023-04-02T10:27:51.976Z,100678.16
2023-04-02T10:30:57.028Z,100672.13
2023-04-02T10:33:59.813Z,100673.13
2023-04-02T10:36:58.697Z,100674.94
2023-04-02T10:39:38.274Z,100675.78
2023-04-02T10:42:45.091Z,100663.06
2023-04-02T10:45:42.826Z,100674.03
2023-04-02T10:48:38.772Z,100668.75
2023-04-02T10:51:43.242Z,100676.84
2023-04-02T10:54:13.040Z,100679.63
2023-04-02T10:56:50.675Z,100672.97
2023-04-02T10:59:35.581Z,100670.63
2023-04-02T11:02:23.409Z,100665.25
2023-04-02T11:04:52.598Z,100653.09
2023-04-02T11:07:27.342Z,100658.16
2023-04-02T11:09:56.659Z,100666.75
2023-04-02T11:12:42.210Z,100655.16
2023-04-02T11:15:18.545Z,100658.91
2023-04-02T11:17:46.963Z,100654.13
2023-04-02T11:20:47.773Z,100656.19
2023-04-02T11:23:19.845Z,100651.13
2023-04-02T11:25:47.755Z,100649.38
2023-04-02T11:28:30.570Z,100643.50
2023-04-02T11:30:58.512Z,100639.03
2023-04-02T11:33:38.323Z,100636.91
2023-04-02T11:36:51.610Z,100633.41
2023-04-02T11:39:49.648Z,100628.34
2023-04-02T11:42:19.746Z,100629.81
2023-04-02T11:44:46.786Z,100626.13
2023-04-02T11:47:25.894Z,100617.47
2023-04-02T11:49:56.614Z,100624.56
2023-04-02T11:52:53.219Z,100618.00
2023-04-02T11:55:31.579Z,100623.88
2023-04-02T11:58:54.618Z,100612.50
2023-04-02T12:01:45.788Z,100614.50
2023-04-02T12:04:32.165Z,100616.06
2023-04-02T12:07:21.321Z,100620.75
2023-04-02T12:10:19.715Z,100616.19
2023-04-02T12:12:47.274Z,100624.91
2023-04-02T12:15:32.670Z,100609.56
2023-04-02T12:18:11.952Z,100625.06
2023-04-02T12:20:39.318Z,100621.25
2023-04-02T12:23:06.751Z,100623.22
2023-04-02T12:25:40.321Z,100620.66
2023-04-02T12:28:10.356Z,100624.34
2023-04-02T12:30:38.914Z,100619.22
2023-04-02T12:33:22.263Z,100618.25
2023-04-02T12:35:57.588Z,100617.78
2023-04-02T12:38:43.592Z,100618.22
2023-04-02T12:41:37.176Z,100610.09
2023-04-02T12:44:11.631Z,100614.88
2023-04-02T12:46:40.048Z,100605.94
2023-04-02T12:49:20.604Z,100606.09
2023-04-02T12:51:48.626Z,100607.66
2023-04-02T12:54:17.973Z,100612.94
2023-04-02T12:56:45.549Z,100607.81
2023-04-02T12:59:36.534Z,100608.06
2023-04-02T13:02:19.665Z,100606.66
2023-04-02T13:05:01.064Z,100606.94
2023-04-02T13:07:33.760Z,100602.09
2023-04-02T13:10:04.787Z,100597.34
2023-04-02T13:12:39.963Z,100600.91
2023-04-02T13:15:21.560Z,100596.44
2023-04-02T13:18:04.767Z,100596.88
2023-04-02T13:21:05.341Z,100603.69
2023-04-02T13:23:37.037Z,100596.22
2023-04-02T13:26:22.059Z,100588.53
2023-04-02T13:29:04.142Z,100597.16
2023-04-02T13:31:32.838Z,100591.84
2023-04-02T13:33:59.955Z,100592.16
2023-04-02T13:36:29.502Z,100593.25
2023-04-02T13:38:57.325Z,100599.16
2023-04-02T13:41:27.950Z,100594.69
2023-04-02T13:43:58.141Z,100597.56
2023-04-02T13:46:29.674Z,100600.72
2023-04-02T13:48:58.394Z,100607.69
2023-04-02T13:51:41.490Z,100598.78
2023-04-02T13:54:20.828Z,100593.50
2023-04-02T13:56:48.238Z,100595.31
2023-04-02T13:59:16.148Z,100594.22
2023-04-02T14:01:45.639Z,100585.47
2023-04-02T14:04:22.416Z,100591.34
2023-04-02T14:07:14.947Z,100586.44
2023-04-02T14:09:59.870Z,100587.38
2023-04-02T14:13:05.660Z,100588.63
2023-04-02T14:16:08.748Z,100587.28
2023-04-02T14:19:10.126Z,100580.53
2023-04-02T14:22:08.243Z,100583.88
2023-04-02T14:25:02.761Z,100582.50
2023-04-02T14:27:57.985Z,100578.09
2023-04-02T14:30:47.808Z,100592.00
2023-04-02T14:33:36.597Z,100576.44
2023-04-02T14:36:19.704Z,100585.16
2023-04-02T14:39:05.648Z,100575.84
2023-04-02T14:41:44.879Z,100569.50
2023-04-02T14:44:13.025Z,100569.22
2023-04-02T14:46:40.262Z,100564.06
2023-04-02T14:49:39.998Z,100566.78
2023-04-02T14:52:14.512Z,100560.19
2023-04-02T14:54:55.421Z,100563.44
2023-04-02T14:57:30.710Z,100567.53
2023-04-02T15:00:03.838Z,100572.09
2023-04-02T15:02:43.013Z,100558.72
2023-04-02T15:05:19.392Z,100556.34
2023-04-02T15:08:03.708Z,100566.19
2023-04-02T15:10:32.925Z,100560.22
2023-04-02T15:13:07.827Z,100560.44
2023-04-02T15:15:57.703Z,100573.34
2023-04-02T15:18:25.630Z,100565.66
2023-04-02T15:21:19.986Z,100561.06
2023-04-02T15:24:04.595Z,100563.44
2023-04-02T15:27:37.359Z,100559.69
2023-04-02T15:30:14.787Z,100559.88
2023-04-02T15:32:43.817Z,100568.88
2023-04-02T15:35:40.933Z,100560.56
2023-04-02T15:38:23.920Z,100567.69
2023-04-02T15:41:02.986Z,100559.69
2023-04-02T15:44:05.274Z,100567.19
2023-04-02T15:47:15.148Z,100564.69
2023-04-02T15:49:59.502Z,100567.56
2023-04-02T15:52:58.848Z,100561.22
2023-04-02T15:56:16.724Z,100563.41
2023-04-02T15:58:47.714Z,100566.75
2023-04-02T16:01:23.910Z,100570.41
2023-04-02T16:03:56.626Z,100578.00
2023-04-02T16:06:28.121Z,100573.91
2023-04-02T16:09:27.469Z,100573.38
2023-04-02T16:12:16.040Z,100581.97
2023-04-02T16:14:47.706Z,100574.13
2023-04-02T16:17:35.540Z,100579.41
2023-04-02T16:20:27.488Z,100581.97
2023-04-02T16:23:11.364Z,100590.41
2023-04-02T16:26:02.801Z,100585.84
2023-04-02T16:28:38.431Z,100590.25
2023-04-02T16:31:24.582Z,100593.28
2023-04-02T16:34:09.442Z,100596.84
2023-04-02T16:36:55.393Z,100601.13
2023-04-02T16:39:42.186Z,100597.69
2023-04-02T16:42:49.753Z,100599.41
2023-04-02T16:45:57.191Z,100601.56
2023-04-02T16:48:52.938Z,100605.59
2023-04-02T16:51:53.328Z,100612.09
2023-04-02T16:54:39.722Z,100615.91
2023-04-02T16:57:38.126Z,100616.78
2023-04-02T17:00:33.609Z,100616.38
2023-04-02T17:03:19.195Z,100619.69
2023-04-02T17:06:45.392Z,100615.41
2023-04-02T17:09:19.637Z,100628.59
2023-04-02T17:12:16.295Z,100622.63
2023-04-02T17:14:57.479Z,100626.94
2023-04-02T17:17:24.888Z,100623.97
2023-04-02T17:19:59.873Z,100621.88
2023-04-02T17:22:31.353Z,100620.59
2023-04-02T17:25:02.449Z,100631.31
2023-04-02T17:27:36.119Z,100631.06
2023-04-02T17:30:29.274Z,100635.34
2023-04-02T17:32:56.356Z,100635.09
2023-04-02T17:35:45.123Z,100640.06
2023-04-02T17:38:31.503Z,100641.50
2023-04-02T17:41:44.146Z,100644.22
2023-04-02T17:44:46.996Z,100658.47
2023-04-02T17:47:23.070Z,100663.59
2023-04-02T17:50:30.419Z,100676.00
2023-04-02T17:53:34.420Z,100671.03
2023-04-02T17:56:27.381Z,100677.13
2023-04-02T17:59:11.161Z,100682.13
2023-04-02T18:01:54.796Z,100681.00
2023-04-02T18:04:39.576Z,100678.88
2023-04-02T18:07:27.909Z,100683.97
2023-04-02T18:10:35.191Z,100695.63
2023-04-02T18:13:13.878Z,100694.56
2023-04-02T18:16:14.721Z,100699.84
2023-04-02T18:19:21.379Z,100706.06
2023-04-02T18:22:06.383Z,100704.91
2023-04-02T18:25:03.597Z,100703.75
2023-04-02T18:27:53.974Z,100705.28
2023-04-02T18:30:38.836Z,100709.66
2023-04-02T18:33:28.358Z,100721.13
2023-04-02T18:36:45.645Z,100720.22
2023-04-02T18:39:28.956Z,100732.34
2023-04-02T18:42:32.765Z,100736.84
2023-04-02T18:46:06.534Z,100744.00
2023-04-02T18:48:50.223Z,100748.31
2023-04-02T18:51:23.415Z,100758.78
2023-04-02T18:54:04.239Z,100754.78
2023-04-02T18:56:32.483Z,100764.34
2023-04-02T18:59:30.889Z,100759.59
2023-04-02T19:02:01.237Z,100766.50
2023-04-02T19:04:31.826Z,100772.41
2023-04-02T19:07:16.435Z,100769.13
2023-04-02T19:09:47.684Z,100770.22
2023-04-02T19:12:23.703Z,100772.22
2023-04-02T19:14:52.495Z,100768.78
2023-04-02T19:17:42.410Z,100769.75
2023-04-02T19:20:36.733Z,100776.25
2023-04-02T19:23:37.771Z,100784.44
2023-04-02T19:26:14.324Z,100791.84
2023-04-02T19:29:08.911Z,100800.03
2023-04-02T19:31:38.560Z,100794.53
2023-04-02T19:34:38.962Z,100798.97
2023-04-02T19:37:16.847Z,100802.63
2023-04-02T19:40:17.785Z,100803.84
2023-04-02T19:42:48.820Z,100805.09
2023-04-02T19:45:32.976Z,100805.44
2023-04-02T19:48:13.872Z,100805.59
2023-04-02T19:50:41.666Z,100812.94
2023-04-02T19:53:09.005Z,100814.88
2023-04-02T19:55:36.554Z,100818.53
2023-04-02T19:58:17.575Z,100815.97
2023-04-02T20:00:46.688Z,100822.31
2023-04-02T20:03:14.186Z,100817.06
2023-04-02T20:05:41.205Z,100829.78
2023-04-02T20:08:10.403Z,100826.38
2023-04-02T20:10:37.827Z,100821.25
2023-04-02T20:13:04.985Z,100822.34
2023-04-02T20:15:32.472Z,100831.41
2023-04-02T20:17:59.600Z,100834.34
2023-04-02T20:20:27.292Z,100824.53
2023-04-02T20:22:55.371Z,100827.22
2023-04-02T20:25:23.298Z,100829.19
2023-04-02T20:27:50.383Z,100822.94
2023-04-02T20:30:17.701Z,100825.75
2023-04-02T20:32:48.800Z,100824.06
2023-04-02T20:35:16.979Z,100833.13
2023-04-02T20:37:44.406Z,100834.06
2023-04-02T20:40:11.578Z,100839.47
2023-04-02T20:42:38.593Z,100838.75
2023-04-02T20:45:07.724Z,100837.84
2023-04-02T20:47:34.760Z,100830.91
2023-04-02T20:50:02.456Z,100831.88
2023-04-02T20:52:30.398Z,100842.88
2023-04-02T20:54:57.504Z,100835.91
2023-04-02T20:57:26.337Z,100833.56
2023-04-02T20:59:54.626Z,100836.50
2023-04-02T21:02:22.191Z,100844.81
2023-04-02T21:04:49.340Z,100846.88
2023-04-02T21:07:16.284Z,100848.97
2023-04-02T21:09:43.269Z,100848.34
2023-04-02T21:12:11.591Z,100850.53
2023-04-02T21:14:40.097Z,100859.81
2023-04-02T21:17:07.777Z,100861.28
2023-04-02T21:19:35.716Z,100858.06
2023-04-02T21:22:03.681Z,100856.50
2023-04-02T21:24:30.695Z,100868.34
2023-04-02T21:26:57.709Z,100865.25
2023-04-02T21:29:24.664Z,100866.47
2023-04-02T21:31:52.503Z,100867.78
2023-04-02T21:34:19.659Z,100868.00
2023-04-02T21:36:48.376Z,100869.91
2023-04-02T21:39:23.789Z,100868.31
2023-04-02T21:41:53.213Z,100869.41
2023-04-02T21:44:22.581Z,100870.38
2023-04-02T21:46:51.891Z,100874.03
2023-04-02T21:49:22.820Z,100880.41
2023-04-02T21:51:54.206Z,100876.84
2023-04-02T21:54:21.685Z,100884.94
2023-04-02T21:56:49.523Z,100879.66
2023-04-02T21:59:17.817Z,100880.84
2023-04-02T22:01:49.057Z,100877.41
2023-04-02T22:04:25.701Z,100873.09
2023-04-02T22:06:55.797Z,100878.72
2023-04-02T22:09:25.056Z,100876.16
2023-04-02T22:11:59.203Z,100869.06
2023-04-02T22:14:27.588Z,100865.63
2023-04-02T22:16:55.711Z,100869.59
2023-04-02T22:19:22.956Z,100885.69
2023-04-02T22:21:50.676Z,100883.22
2023-04-02T22:24:19.359Z,100882.59
2023-04-02T22:26:47.084Z,100878.91
2023-04-02T22:29:14.907Z,100887.84
2023-04-02T22:31:41.986Z,100880.88
2023-04-02T22:34:09.606Z,100888.81
2023-04-02T22:36:36.731Z,100891.63
2023-04-02T22:39:07.078Z,100893.44
2023-04-02T22:41:34.267Z,100884.72
2023-04-02T22:44:02.402Z,100884.88
2023-04-02T22:46:30.692Z,100891.31
2023-04-02T22:48:58.084Z,100895.06
2023-04-02T22:51:27.973Z,100887.97
2023-04-02T22:53:56.539Z,100892.59
2023-04-02T22:56:32.044Z,100881.22
2023-04-02T22:58:59.430Z,100884.13
2023-04-02T23:01:32.820Z,100886.81
2023-04-02T23:03:59.951Z,100884.34
2023-04-02T23:06:27.910Z,100881.56
2023-04-02T23:08:54.912Z,100885.31
2023-04-02T23:11:26.014Z,100880.16
2023-04-02T23:13:56.672Z,100867.94
2023-04-02T23:16:27.262Z,100871.06
2023-04-02T23:18:55.478Z,100865.25
2023-04-02T23:21:23.325Z,100859.34
2023-04-02T23:23:51.095Z,100851.50
2023-04-02T23:26:25.020Z,100847.31
2023-04-02T23:28:52.078Z,100850.34
2023-04-02T23:31:22.537Z,100853.31
2023-04-02T23:33:51.889Z,100851.94
2023-04-02T23:36:24.603Z,100849.47
2023-04-02T23:38:55.350Z,100856.97
2023-04-02T23:41:25.156Z,100861.69
2023-04-02T23:43:52.778Z,100857.38
2023-04-02T23:46:20.593Z,100869.94
2023-04-02T23:48:50.589Z,100864.91
2023-04-02T23:51:20.411Z,100867.81
2023-04-02T23:53:49.229Z,100868.03
2023-04-02T23:56:17.440Z,100872.75
2023-04-02T23:58:44.608Z,100873.81
